Terminal Aerodrome Forecast
Issued by NWS Greer, SC

Home | Current Version | Previous Version | Text Only | Print | Product List | Glossary On
Versions: 1 2 3 4 5 6 7 8 9 10 11 12 13 14 15 16 17 18 19 20 21 22 23 24 25 26 27 28 29 30 31 32 33 34 35 36 37 38 39 40 41 42 43 44 45
000
FTUS42 KGSP 231136
TAFAVL
TAF
KAVL 231136Z 2312/2412 00000KT 2SM BR BKN006
      TEMPO 2312/2314 1/2SM FG OVC002
     FM231400 19005KT P6SM SCT005 SCT060
     FM232200 18005KT P6SM SCT100
     FM240800 18005KT 6SM BR BKN040
     FM241000 18004KT 5SM BR BKN035=

USA.gov is the U.S. government's official web portal to all federal, state and local government web resources and services.